Flight Track Log - Related Links

Times and Time Zones

All times are in EDT time to prevent confusion due to time zone crossing. See the DAL268 flight status page for this flight to view local times or setup timezone preferences in your user account.

Time Position Orientation Groundspeed Altitude Reporting Facility
EDT Latitude Longitude Course Direction KTS MPH feet Rate Location/Type
Sat 02:33:42 PM 37.6110 -122.3780 90° East 105 121  Level FlightAware ADS-B
Sat 02:34:01 PM 37.6235 -122.3700 27° Northeast 174 200 1,125 Level FlightAware ADS-B
Sat 02:34:14 PM 37.6323 -122.3640 28° Northeast 170 196 600 2,824 Climbing FlightAware ADS-B
Sat 02:34:18 PM 37.6352 -122.3620 29° Northeast 170 196 800 3,429 Climbing FlightAware ADS-B
Sat 02:34:21 PM 37.6376 -122.3600 33° Northeast 173 199 1,000 3,429 Climbing FlightAware ADS-B
Sat 02:34:25 PM 37.6400 -122.3570 45° Northeast 174 200 1,200 2,400 Climbing FlightAware ADS-B
Sat 02:34:31 PM 37.6434 -122.3530 43° Northeast 176 203 1,400 2,400 Climbing FlightAware ADS-B
Sat 02:34:35 PM 37.6452 -122.3500 53° Northeast 175 201 1,600 2,211 Climbing FlightAware ADS-B
Sat 02:34:50 PM 37.6538 -122.3380 48° Northeast 186 214 2,100 1,862 Climbing FlightAware ADS-B
Sat 02:35:04 PM 37.6622 -122.3260 49° Northeast 202 232 2,500 1,655 Climbing FlightAware ADS-B
Sat 02:35:19 PM 37.6722 -122.3120 48° Northeast 218 251 2,900 1,680 Climbing FlightAware ADS-B
Sat 02:35:29 PM 37.6785 -122.3030 49° Northeast 228 262 3,200 1,500 Climbing FlightAware ADS-B
Sat 02:35:39 PM 37.6858 -122.2930 47° Northeast 238 274 3,400 1,714 Climbing FlightAware ADS-B
Sat 02:35:43 PM 37.6891 -122.2890 44° Northeast 242 278 3,600 1,636 Climbing FlightAware ADS-B
Sat 02:35:50 PM 37.6961 -122.2830 34° Northeast 247 284 3,700 1,091 Climbing FlightAware ADS-B
Sat 02:35:54 PM 37.6999 -122.2810 23° Northeast 251 289 3,800 1,500 Climbing FlightAware ADS-B
Sat 02:36:02 PM 37.7087 -122.2770 20° North 258 297 4,000 2,182 Climbing FlightAware ADS-B
Sat 02:36:05 PM 37.7123 -122.2760 12° North 258 297 4,200 3,000 Climbing FlightAware ADS-B
Sat 02:36:10 PM 37.7188 -122.2750 North 257 296 4,400 2,667 Climbing FlightAware ADS-B
Sat 02:36:14 PM 37.7229 -122.2760 349° North 255 293 4,600 2,769 Climbing FlightAware ADS-B
Sat 02:36:36 PM 37.7497 -122.2780 357° North 264 304 5,600 2,769 Climbing FlightAware ADS-B
Sat 02:37:06 PM 37.7865 -122.2800 358° North 269 310 7,000 2,667 Climbing FlightAware ADS-B
Sat 02:37:12 PM 37.7938 -122.2790 North 274 315 7,200 1,875 Climbing FlightAware ADS-B
Sat 02:37:22 PM 37.8064 -122.2740 17° North 280 322 7,500 2,348 Climbing FlightAware ADS-B
Sat 02:37:58 PM 37.8430 -122.2360 39° Northeast 291 335 9,000 2,604 Climbing FlightAware ADS-B
Sat 02:38:15 PM 37.8596 -122.2170 42° Northeast 290 334 9,800 2,250 Climbing FlightAware ADS-B
Sat 02:38:46 PM 37.8913 -122.1820 41° Northeast 307 353 10,800 1,645 Climbing FlightAware ADS-B
Sat 02:39:17 PM 37.9265 -122.1420 42° Northeast 337 388 11,500 1,355 Climbing FlightAware ADS-B
Sat 02:39:48 PM 37.9637 -122.1000 42° Northeast 364 419 12,200 1,500 Climbing FlightAware ADS-B
Sat 02:40:21 PM 38.0072 -122.0510 42° Northeast 382 440 13,100 1,905 Climbing FlightAware ADS-B
Sat 02:40:51 PM 38.0465 -122.0070 41° Northeast 385 443 14,200 2,087 Climbing FlightAware ADS-B
Sat 02:41:07 PM 38.0675 -121.9830 42° Northeast 391 450 14,700 1,959 Climbing FlightAware ADS-B
Sat 02:41:40 PM 38.1120 -121.9310 43° Northeast 398 458 15,800 1,875 Climbing FlightAware ADS-B
Sat 02:42:27 PM 38.1750 -121.8610 41° Northeast 410 472 17,200 1,857 Climbing FlightAware ADS-B
Sat 02:43:04 PM 38.2320 -121.7950 42° Northeast 421 484 18,400 1,859 Climbing FlightAware ADS-B
Sat 02:43:38 PM 38.2780 -121.7420 42° Northeast 429 494 19,400 1,800 Climbing FlightAware ADS-B
Sat 02:43:54 PM 38.3054 -121.7120 41° Northeast 431 496 19,900 1,833 Climbing FlightAware ADS-B
Sat 02:44:50 PM 38.3870 -121.6180 42° Northeast 440 506 21,600 1,938 Climbing FlightAware ADS-B
Sat 02:44:59 PM 38.4033 -121.5990 42° Northeast 442 509 22,000 1,935 Climbing FlightAware ADS-B
Sat 02:45:52 PM 38.4740 -121.5030 47° Northeast 441 507 23,600 1,705 Climbing FlightAware ADS-B
Sat 02:46:34 PM 38.5250 -121.4140 54° Northeast 447 514 24,700 2,000 Climbing FlightAware ADS-B
Sat 02:47:04 PM 38.5640 -121.3470 53° Northeast 440 506 26,000 1,886 Climbing FlightAware ADS-B
Sat 02:47:44 PM 38.6100 -121.2680 53° Northeast 448 516 26,900 1,297 Climbing FlightAware ADS-B
Sat 02:48:18 PM 38.6520 -121.1940 54° Northeast 455 524 27,600 1,280 Climbing FlightAware ADS-B
Sat 02:48:59 PM 38.7030 -121.1060 53° Northeast 461 531 28,500 1,459 Climbing FlightAware ADS-B
Sat 02:49:32 PM 38.7460 -121.0320 53° Northeast 461 531 29,400 1,268 Climbing FlightAware ADS-B
Sat 02:50:10 PM 38.7950 -120.9460 54° Northeast 472 543 30,000 1,000 Climbing FlightAware ADS-B
Sat 02:50:44 PM 38.8400 -120.8690 53° Northeast 478 550 30,600 1,029 Climbing FlightAware ADS-B
Sat 02:51:20 PM 38.8860 -120.7900 53° Northeast 483 556 31,200 1,059 Climbing FlightAware ADS-B
Sat 02:51:52 PM 38.9320 -120.7110 53° Northeast 488 562 31,800 1,059 Climbing FlightAware ADS-B
Sat 02:52:28 PM 38.9800 -120.6280 53° Northeast 492 566 32,400 1,054 Climbing FlightAware ADS-B
Sat 02:53:06 PM 39.0320 -120.5370 54° Northeast 494 568 33,100 1,135 Climbing FlightAware ADS-B
Sat 02:53:42 PM 39.0800 -120.4540 53° Northeast 493 567 33,800 1,200 Climbing FlightAware ADS-B
Sat 02:54:16 PM 39.1260 -120.3720 54° Northeast 493 567 34,500 943 Climbing FlightAware ADS-B
Sat 02:54:52 PM 39.1730 -120.2900 54° Northeast 496 571 34,900 417 Climbing FlightAware ADS-B
Sat 02:55:28 PM 39.2260 -120.1980 53° Northeast 497 572 35,000 100 Climbing FlightAware ADS-B
Sat 02:55:52 PM 39.2580 -120.1420 54° Northeast 495 570 35,000  Level FlightAware ADS-B
Sat 02:56:28 PM 39.3060 -120.0570 54° Northeast 494 568 35,000  Level FlightAware ADS-B
Sat 02:57:04 PM 39.3540 -119.9710 54° Northeast 496 571 35,000  Level FlightAware ADS-B
Sat 02:57:40 PM 39.4030 -119.8850 54° Northeast 496 571 35,000  Level FlightAware ADS-B
Sat 02:58:12 PM 39.4470 -119.8070 54° Northeast 496 571 35,000  Level FlightAware ADS-B
Sat 02:58:48 PM 39.4950 -119.7210 54° Northeast 496 571 35,000  Level FlightAware ADS-B
Sat 02:59:20 PM 39.5370 -119.6450 54° Northeast 495 570 35,000  Level FlightAware ADS-B
Sat 02:59:56 PM 39.5860 -119.5580 54° Northeast 495 570 35,000  Level FlightAware ADS-B
Sat 03:00:30 PM 39.6310 -119.4770 54° Northeast 495 570 35,000  Level FlightAware ADS-B
Sat 03:01:06 PM 39.6800 -119.3900 54° Northeast 495 570 35,000  Level FlightAware ADS-B
Sat 03:01:42 PM 39.7280 -119.3030 54° Northeast 495 570 35,000  Level FlightAware ADS-B
Sat 03:02:18 PM 39.7750 -119.2170 55° Northeast 496 571 35,000  Level FlightAware ADS-B
Sat 03:02:54 PM 39.8240 -119.1290 54° Northeast 498 573 35,000  Level FlightAware ADS-B
Sat 03:03:30 PM 39.8720 -119.0420 54° Northeast 498 573 35,000  Level FlightAware ADS-B
Sat 03:04:00 PM 39.9120 -118.9680 55° Northeast 499 574 35,000  Level FlightAware ADS-B
Sat 03:04:39 PM 39.9640 -118.8740 54° Northeast 500 575 35,000  Level FlightAware ADS-B
Sat 03:05:11 PM 40.0060 -118.7960 55° Northeast 501 577 35,000  Level FlightAware ADS-B
Sat 03:05:46 PM 40.0550 -118.7070 54° Northeast 502 578 35,000  Level FlightAware ADS-B
Sat 03:06:22 PM 40.1030 -118.6170 55° Northeast 502 578 35,000  Level FlightAware ADS-B
Sat 03:06:58 PM 40.1400 -118.5220 63° Northeast 498 573 35,000  Level FlightAware ADS-B
Sat 03:07:35 PM 40.1690 -118.4210 69° East 498 573 35,000  Level FlightAware ADS-B
Sat 03:08:15 PM 40.2000 -118.3080 70° East 499 574 35,000  Level FlightAware ADS-B
Sat 03:08:51 PM 40.2280 -118.2040 71° East 500 575 35,000  Level FlightAware ADS-B
Sat 03:09:44 PM 40.2670 -118.0630 70° East 500 575 35,000  Level FlightAware ADS-B
Sat 03:10:41 PM 40.3100 -117.9050 70° East 501 577 35,000  Level FlightAware ADS-B
Sat 03:11:17 PM 40.3340 -117.8170 70° East 501 577 35,000  Level FlightAware ADS-B
Sat 03:11:54 PM 40.3590 -117.7270 70° East 501 577 35,000  Level FlightAware ADS-B
Sat 03:12:30 PM 40.3830 -117.6400 70° East 501 577 35,000  Level FlightAware ADS-B
Sat 03:13:06 PM 40.4070 -117.5520 70° East 501 577 35,000  Level FlightAware ADS-B
Sat 03:13:44 PM 40.4330 -117.4600 70° East 501 577 35,000  Level FlightAware ADS-B
Sat 03:14:23 PM 40.4590 -117.3650 70° East 501 577 35,000  Level FlightAware ADS-B
Sat 03:14:59 PM 40.4830 -117.2770 70° East 501 577 35,000  Level FlightAware ADS-B
Sat 03:15:35 PM 40.5080 -117.1900 69° East 501 577 35,000  Level FlightAware ADS-B
Sat 03:16:11 PM 40.5320 -117.1020 70° East 501 577 35,000  Level FlightAware ADS-B
Sat 03:16:47 PM 40.5560 -117.0140 70° East 501 577 35,000  Level FlightAware ADS-B
Sat 03:17:23 PM 40.5800 -116.9270 70° East 501 577 35,000  Level FlightAware ADS-B
Sat 03:17:57 PM 40.6030 -116.8440 70° East 501 577 35,000  Level FlightAware ADS-B
Sat 03:18:33 PM 40.6270 -116.7560 70° East 501 577 35,000  Level FlightAware ADS-B
Sat 03:19:09 PM 40.6520 -116.6680 69° East 501 577 35,000  Level FlightAware ADS-B
Sat 03:19:46 PM 40.6770 -116.5780 70° East 501 577 35,000  Level FlightAware ADS-B
Sat 03:21:23 PM 40.8023 -116.0570 72° East 497 572 35,000  Level FlightAware ADS-B
Sat 03:21:55 PM 40.8262 -115.9660 71° East 497 572 35,000  Level FlightAware ADS-B
Sat 03:22:25 PM 40.8488 -115.8800 71° East 497 572 35,000  Level FlightAware ADS-B
Sat 03:22:56 PM 40.8719 -115.7920 71° East 496 571 35,000  Level FlightAware ADS-B
Sat 03:23:41 PM 40.9059 -115.6620 71° East 497 572 35,000  Level FlightAware ADS-B
Sat 03:24:39 PM 40.9493 -115.4950 71° East 496 571 35,000  Level FlightAware ADS-B
Sat 03:26:24 PM 41.0263 -115.1960 71° East 496 571 35,000  Level FlightAware ADS-B
Sat 03:26:55 PM 41.0492 -115.1060 71° East 496 571 35,000  Level FlightAware ADS-B
Sat 03:27:27 PM 41.0726 -115.0140 71° East 496 571 35,000  Level FlightAware ADS-B
Sat 03:28:00 PM 41.0964 -114.9200 71° East 496 571 35,000  Level FlightAware ADS-B
Sat 03:28:35 PM 41.1217 -114.8190 72° East 496 571 35,000  Level FlightAware ADS-B
Sat 03:29:09 PM 41.1464 -114.7210 71° East 497 572 35,000  Level FlightAware ADS-B
Sat 03:29:46 PM 41.1734 -114.6130 72° East 496 571 35,000  Level FlightAware ADS-B
Sat 03:30:16 PM 41.1951 -114.5260 72° East 496 571 35,000 95 Level FlightAware ADS-B
Sat 03:30:49 PM 41.2181 -114.4330 72° East 494 568 35,100 286 Climbing FlightAware ADS-B
Sat 03:31:19 PM 41.2395 -114.3470 72° East 491 565 35,300 448 Climbing FlightAware ADS-B
Sat 03:31:56 PM 41.2656 -114.2410 72° East 490 564 35,600 269 Climbing FlightAware ADS-B
Sat 03:32:26 PM 41.2840 -114.1690 71° East 491 565 35,600 522 Level FlightAware ADS-B
Sat 03:33:05 PM 41.3138 -114.0430 72° East 491 565 36,200 686 Climbing FlightAware ADS-B
Sat 03:33:36 PM 41.3350 -113.9560 72° East 488 562 36,400 471 Climbing FlightAware ADS-B
Sat 03:33:56 PM 41.3487 -113.8990 72° East 489 563 36,600 585 Climbing FlightAware ADS-B
Sat 03:34:17 PM 41.3600 -113.8370 76° East 489 563 36,800 486 Climbing FlightAware ADS-B
Sat 03:34:33 PM 41.3659 -113.7900 80° East 488 562 36,900 250 Climbing FlightAware ADS-B
Sat 03:35:05 PM 41.3731 -113.6920 84° East 489 563 37,000 95 Climbing FlightAware ADS-B
Sat 03:35:36 PM 41.3792 -113.6020 85° East 488 562 37,000  Level FlightAware ADS-B
Sat 03:36:06 PM 41.3850 -113.5130 85° East 486 559 37,000  Level FlightAware ADS-B
Sat 03:36:36 PM 41.3908 -113.4230 85° East 486 559 37,000  Level FlightAware ADS-B
Sat 03:37:06 PM 41.3964 -113.3340 85° East 486 559 37,000  Level FlightAware ADS-B
Sat 03:37:41 PM 41.4031 -113.2290 85° East 485 558 37,000  Level FlightAware ADS-B
Sat 03:38:12 PM 41.4087 -113.1380 85° East 485 558 37,000  Level FlightAware ADS-B
Sat 03:38:45 PM 41.4148 -113.0400 85° East 484 557 37,000  Level FlightAware ADS-B
Sat 03:39:16 PM 41.4203 -112.9490 85° East 484 557 37,000  Level FlightAware ADS-B
Sat 03:39:47 PM 41.4260 -112.8590 85° East 482 555 37,000  Level FlightAware ADS-B
Sat 03:40:21 PM 41.4320 -112.7550 86° East 483 556 37,000  Level FlightAware ADS-B
Sat 03:40:57 PM 41.4381 -112.6500 86° East 483 556 37,000  Level FlightAware ADS-B
Sat 03:41:37 PM 41.4449 -112.5310 86° East 483 556 37,000  Level FlightAware ADS-B
Sat 03:42:07 PM 41.4499 -112.4410 86° East 484 557 37,000  Level FlightAware ADS-B
Sat 03:42:54 PM 41.4576 -112.3030 86° East 484 557 37,000  Level FlightAware ADS-B
Sat 03:43:24 PM 41.4624 -112.2130 86° East 484 557 37,000  Level FlightAware ADS-B
Sat 03:43:58 PM 41.4678 -112.1120 86° East 484 557 37,000  Level FlightAware ADS-B
Sat 03:44:30 PM 41.4727 -112.0180 86° East 484 557 37,000  Level FlightAware ADS-B
Sat 03:45:00 PM 41.4774 -111.9290 86° East 485 558 37,000  Level FlightAware ADS-B
Sat 03:45:34 PM 41.4825 -111.8280 86° East 485 558 37,000  Level FlightAware ADS-B
Sat 03:46:05 PM 41.4872 -111.7360 86° East 486 559 37,000  Level FlightAware ADS-B
Sat 03:46:35 PM 41.4917 -111.6460 86° East 485 558 37,000  Level FlightAware ADS-B
Sat 03:47:05 PM 41.4961 -111.5550 86° East 486 559 37,000  Level FlightAware ADS-B
Sat 03:47:36 PM 41.5004 -111.4640 86° East 486 559 37,000  Level FlightAware ADS-B
Sat 03:48:11 PM 41.5052 -111.3610 86° East 484 557 37,000  Level FlightAware ADS-B
Sat 03:48:41 PM 41.5094 -111.2710 86° East 482 555 37,000  Level FlightAware ADS-B
Sat 03:49:11 PM 41.5134 -111.1820 87° East 481 554 37,000  Level FlightAware ADS-B
Sat 03:49:43 PM 41.5176 -111.0880 87° East 479 551 37,000  Level FlightAware ADS-B
Sat 03:50:15 PM 41.5217 -110.9940 87° East 481 554 37,000  Level FlightAware ADS-B
Sat 03:50:45 PM 41.5256 -110.9040 87° East 482 555 37,000  Level FlightAware ADS-B
Sat 03:51:16 PM 41.5293 -110.8140 87° East 482 555 37,000  Level FlightAware ADS-B
Sat 03:52:06 PM 41.5350 -110.6660 87° East 480 552 37,000  Level FlightAware ADS-B
Sat 03:52:42 PM 41.5400 -110.5600 86° East 481 554 37,000  Level FlightAware ADS-B
Sat 03:53:14 PM 41.5430 -110.4660 88° East 480 552 37,000  Level FlightAware ADS-B
Sat 03:53:52 PM 41.5480 -110.3540 87° East 479 551 37,000  Level FlightAware ADS-B
Sat 03:54:34 PM 41.5520 -110.2430 87° East 479 551 37,000  Level FlightAware ADS-B
Sat 03:55:10 PM 41.5550 -110.1530 87° East 479 551 37,000  Level FlightAware ADS-B
Sat 03:55:46 PM 41.5590 -110.0620 87° East 479 551 37,000  Level FlightAware ADS-B
Sat 03:56:34 PM 41.5640 -109.9420 87° East 479 551 37,000  Level FlightAware ADS-B
Sat 03:57:10 PM 41.5670 -109.8510 87° East 479 551 37,000  Level FlightAware ADS-B
Sat 03:57:46 PM 41.5710 -109.7610 87° East 479 551 37,000  Level FlightAware ADS-B
Sat 03:58:22 PM 41.5740 -109.6700 87° East 479 551 37,000  Level FlightAware ADS-B
Sat 03:58:59 PM 41.5780 -109.5770 87° East 479 551 37,000  Level FlightAware ADS-B
Sat 03:59:36 PM 41.5820 -109.4840 87° East 479 551 37,000  Level FlightAware ADS-B
Sat 04:00:12 PM 41.5850 -109.3930 87° East 479 551 37,000  Level FlightAware ADS-B
Sat 04:00:48 PM 41.5890 -109.3030 87° East 479 551 37,000  Level FlightAware ADS-B
Sat 04:01:24 PM 41.5920 -109.2120 87° East 479 551 37,000  Level FlightAware ADS-B
Sat 04:02:01 PM 41.5960 -109.1190 87° East 479 551 37,000  Level FlightAware ADS-B
Sat 04:02:37 PM 41.5990 -109.0290 87° East 479 551 37,000  Level FlightAware ADS-B
Sat 04:03:13 PM 41.6030 -108.9380 87° East 479 551 37,000  Level FlightAware ADS-B
Sat 04:03:49 PM 41.6060 -108.8480 87° East 479 551 37,000  Level FlightAware ADS-B
Sat 04:04:19 PM 41.6486 -108.5222 87° East 477 549 37,000  Level Salt Lake Center
Sat 04:05:21 PM 41.6686 -108.3531 81° East 479 551 37,000  Level Salt Lake Center
Sat 04:06:23 PM 41.6906 -108.1578 81° East 476 548 37,000  Level Salt Lake Center
Sat 04:07:24 PM 41.7125 -107.9869 80° East 488 562 37,000  Level Salt Lake Center
Sat 04:08:26 PM 41.7306 -107.8131 82° East 493 567 37,000  Level Salt Lake Center
Sat 04:09:28 PM 41.7525 -107.6100 82° East 495 570 37,000  Level Salt Lake Center
Sat 04:10:30 PM 41.7644 -107.4631 84° East 494 568 37,000  Level Denver Center
Sat 04:15:47 PM 41.8210 -106.4690 84° East 472 543 37,000  Level FlightAware ADS-B
Sat 04:16:25 PM 41.8270 -106.3590 86° East 473 544 37,000  Level FlightAware ADS-B
Sat 04:16:59 PM 41.8320 -106.2620 86° East 474 545 37,000  Level FlightAware ADS-B
Sat 04:17:35 PM 41.8380 -106.1550 86° East 475 547 37,000  Level FlightAware ADS-B
Sat 04:18:03 PM 41.8420 -106.0740 86° East 475 547 37,000  Level FlightAware ADS-B
Sat 04:18:45 PM 41.8520 -105.9530 84° East 473 544 37,000  Level FlightAware ADS-B
Sat 04:19:21 PM 41.8640 -105.8470 81° East 472 543 37,000  Level FlightAware ADS-B
Sat 04:19:53 PM 41.8750 -105.7540 81° East 471 542 37,000  Level FlightAware ADS-B
Sat 04:20:26 PM 41.8860 -105.6580 81° East 469 540 37,000  Level FlightAware ADS-B
Sat 04:21:02 PM 41.8970 -105.5600 81° East 470 541 37,000  Level FlightAware ADS-B
Sat 04:21:42 PM 41.9090 -105.4620 81° East 470 541 37,000  Level FlightAware ADS-B
Sat 04:22:16 PM 41.9220 -105.3430 82° East 477 549 37,000  Level FlightAware ADS-B
Sat 04:22:56 PM 41.9350 -105.2230 82° East 478 550 37,000  Level FlightAware ADS-B
Sat 04:23:33 PM 41.9471 -105.1160 81° East 478 550 37,000  Level FlightAware ADS-B
Sat 04:24:03 PM 41.9569 -105.0270 82° East 477 549 37,000  Level FlightAware ADS-B
Sat 04:24:33 PM 41.9665 -104.9380 82° East 477 549 37,000  Level FlightAware ADS-B
Sat 04:25:03 PM 41.9761 -104.8500 82° East 477 549 37,000  Level FlightAware ADS-B
Sat 04:25:34 PM 41.9856 -104.7620 82° East 476 548 37,000  Level FlightAware ADS-B
Sat 04:26:05 PM 41.9952 -104.6710 82° East 477 549 37,000  Level FlightAware ADS-B
Sat 04:26:36 PM 42.0049 -104.5800 82° East 476 548 37,000  Level FlightAware ADS-B
Sat 04:27:06 PM 42.0142 -104.4920 82° East 476 548 37,000  Level FlightAware ADS-B
Sat 04:27:37 PM 42.0234 -104.4030 82° East 475 547 37,000  Level FlightAware ADS-B
Sat 04:28:07 PM 42.0325 -104.3150 82° East 473 544 37,000  Level FlightAware ADS-B
Sat 04:28:37 PM 42.0414 -104.2280 82° East 472 543 37,000  Level FlightAware ADS-B
Sat 04:29:10 PM 42.0512 -104.1320 82° East 472 543 37,000  Level FlightAware ADS-B
Sat 04:29:41 PM 42.0603 -104.0420 82° East 471 542 37,000  Level FlightAware ADS-B
Sat 04:30:11 PM 42.0691 -103.9550 82° East 469 540 37,000  Level FlightAware ADS-B
Sat 04:30:41 PM 42.0777 -103.8680 82° East 466 536 37,000  Level FlightAware ADS-B
Sat 04:31:11 PM 42.0862 -103.7820 82° East 464 534 37,000  Level FlightAware ADS-B
Sat 04:31:42 PM 42.0947 -103.6950 82° East 466 536 37,000  Level FlightAware ADS-B
Sat 04:32:12 PM 42.1032 -103.6070 83° East 467 537 37,000  Level FlightAware ADS-B
Sat 04:32:42 PM 42.1115 -103.5200 83° East 468 539 37,000  Level FlightAware ADS-B
Sat 04:33:13 PM 42.1200 -103.4320 83° East 469 540 37,000  Level FlightAware ADS-B
Sat 04:33:43 PM 42.1282 -103.3450 83° East 470 541 37,000  Level FlightAware ADS-B
Sat 04:34:13 PM 42.1364 -103.2580 83° East 471 542 37,000  Level FlightAware ADS-B
Sat 04:34:43 PM 42.1445 -103.1700 83° East 471 542 37,000  Level FlightAware ADS-B
Sat 04:35:14 PM 42.1527 -103.0820 83° East 471 542 37,000  Level FlightAware ADS-B
Sat 04:35:44 PM 42.1607 -102.9940 83° East 470 541 37,000  Level FlightAware ADS-B
Sat 04:36:15 PM 42.1687 -102.9060 83° East 470 541 37,000  Level FlightAware ADS-B
Sat 04:36:47 PM 42.1771 -102.8130 83° East 470 541 37,000  Level FlightAware ADS-B
Sat 04:37:18 PM 42.1851 -102.7240 83° East 469 540 37,000  Level FlightAware ADS-B
Sat 04:37:49 PM 42.1930 -102.6340 83° East 468 539 37,000  Level FlightAware ADS-B
Sat 04:38:19 PM 42.2006 -102.5460 83° East 467 537 37,000  Level FlightAware ADS-B
Sat 04:38:49 PM 42.2082 -102.4580 83° East 467 537 37,000  Level FlightAware ADS-B
Sat 04:39:20 PM 42.2159 -102.3690 83° East 466 536 37,000  Level FlightAware ADS-B
Sat 04:39:52 PM 42.2236 -102.2790 83° East 465 535 37,000  Level FlightAware ADS-B
Sat 04:40:37 PM 42.2345 -102.1500 83° East 465 535 37,000  Level FlightAware ADS-B
Sat 04:41:21 PM 42.2406 -102.0578 83° East 463 533 37,000  Level Minneapolis Center
Sat 04:42:23 PM 42.2589 -101.8478 83° East 465 535 37,000  Level Minneapolis Center
Sat 04:43:25 PM 42.2750 -101.6706 83° East 470 541 37,000  Level Minneapolis Center
Sat 04:44:27 PM 42.2897 -101.4950 83° East 472 543 37,000  Level Minneapolis Center
Sat 04:45:29 PM 42.3036 -101.3197 84° East 471 542 37,000  Level Minneapolis Center
Sat 04:46:31 PM 42.3161 -101.1447 84° East 469 540 37,000  Level Minneapolis Center
Sat 04:47:33 PM 42.3286 -100.9700 84° East 469 540 37,000  Level Minneapolis Center
Sat 04:48:36 PM 42.3392 -100.7978 85° East 465 535 37,000  Level Minneapolis Center
Sat 04:49:38 PM 42.3536 -100.5903 85° East 463 533 37,000  Level Minneapolis Center
Sat 04:50:40 PM 42.3656 -100.4172 85° East 462 532 37,000  Level Minneapolis Center
Sat 04:51:42 PM 42.3761 -100.2475 85° East 456 525 37,000  Level Minneapolis Center
Sat 04:52:44 PM 42.3883 -100.0783 84° East 452 520 37,000  Level Minneapolis Center
Sat 04:53:46 PM 42.3986 -99.9089 85° East 452 520 37,000  Level Minneapolis Center
Sat 04:54:48 PM 42.4103 -99.7417 85° East 449 517 37,000  Level Minneapolis Center
Sat 04:55:50 PM 42.4197 -99.5728 86° East 448 516 37,000  Level Minneapolis Center
Sat 04:56:52 PM 42.4325 -99.3681 85° East 454 522 37,000  Level Minneapolis Center
Sat 04:57:54 PM 42.4419 -99.1983 86° East 453 521 37,000  Level Minneapolis Center
Sat 04:58:56 PM 42.4519 -99.0278 85° East 453 521 37,000  Level Minneapolis Center
Sat 04:59:58 PM 42.4622 -98.8572 85° East 454 522 37,000  Level Minneapolis Center
Sat 05:01:00 PM 42.4714 -98.6864 86° East 454 522 37,000  Level Minneapolis Center
Sat 05:02:02 PM 42.4800 -98.5144 86° East 455 524 37,000  Level Minneapolis Center
Sat 05:07:37 PM 42.5230 -97.5430 86° East 37,000  Level FlightAware ADS-B
Sat 05:08:12 PM 42.5280 -97.4390 86° East 449 517 37,000  Level FlightAware ADS-B
Sat 05:08:52 PM 42.5320 -97.3290 87° East 447 514 37,000  Level FlightAware ADS-B
Sat 05:09:23 PM 42.5350 -97.2530 87° East 446 513 37,000  Level FlightAware ADS-B
Sat 05:10:01 PM 42.5390 -97.1370 87° East 445 512 37,000  Level FlightAware ADS-B
Sat 05:10:39 PM 42.5440 -97.0270 86° East 443 510 37,000  Level FlightAware ADS-B
Sat 05:11:15 PM 42.5470 -96.9300 88° East 442 509 37,000  Level FlightAware ADS-B
Sat 05:11:50 PM 42.5500 -96.8350 88° East 441 507 37,000  Level FlightAware ADS-B
Sat 05:12:23 PM 42.5540 -96.7420 87° East 440 506 37,000  Level FlightAware ADS-B
Sat 05:12:57 PM 42.5570 -96.6500 87° East 440 506 37,000  Level FlightAware ADS-B
Sat 05:13:33 PM 42.5600 -96.5490 88° East 440 506 37,000  Level FlightAware ADS-B
Sat 05:14:05 PM 42.5630 -96.4620 87° East 440 506 37,000  Level FlightAware ADS-B
Sat 05:14:43 PM 42.5660 -96.3550 88° East 440 506 37,000  Level FlightAware ADS-B
Sat 05:15:18 PM 42.5690 -96.2600 88° East 441 507 37,000  Level FlightAware ADS-B
Sat 05:15:49 PM 42.5720 -96.1770 87° East 441 507 37,000  Level FlightAware ADS-B
Sat 05:16:31 PM 42.5750 -96.0590 88° East 441 507 37,000  Level FlightAware ADS-B
Sat 05:17:03 PM 42.5780 -95.9680 87° East 441 507 37,000  Level FlightAware ADS-B
Sat 05:17:35 PM 42.5800 -95.8840 88° East 441 507 37,000  Level FlightAware ADS-B
Sat 05:18:15 PM 42.5830 -95.7740 88° East 441 507 37,000  Level FlightAware ADS-B
Sat 05:18:47 PM 42.5850 -95.6850 88° East 441 507 37,000  Level FlightAware ADS-B
Sat 05:19:24 PM 42.5870 -95.5820 88° East 441 507 37,000  Level FlightAware ADS-B
Sat 05:19:55 PM 42.5900 -95.4940 87° East 441 507 37,000  Level FlightAware ADS-B
Sat 05:20:49 PM 42.5930 -95.3480 88° East 441 507 37,000  Level FlightAware ADS-B
Sat 05:21:24 PM 42.5950 -95.2500 88° East 441 507 37,000  Level FlightAware ADS-B
Sat 05:21:57 PM 42.5970 -95.1600 88° East 440 506 37,000  Level FlightAware ADS-B
Sat 05:22:33 PM 42.5990 -95.0610 88° East 443 510 37,000  Level FlightAware ADS-B
Sat 05:23:09 PM 42.6010 -94.9590 88° East 448 516 37,000  Level FlightAware ADS-B
Sat 05:23:41 PM 42.6020 -94.8710 89° East 450 518 37,000  Level FlightAware ADS-B
Sat 05:24:17 PM 42.6040 -94.7670 88° East 450 518 37,000  Level FlightAware ADS-B
Sat 05:24:53 PM 42.6060 -94.6680 88° East 448 516 37,000  Level FlightAware ADS-B
Sat 05:25:25 PM 42.6070 -94.5790 89° East 441 507 37,000  Level FlightAware ADS-B
Sat 05:26:01 PM 42.6090 -94.4790 88° East 438 504 37,000  Level FlightAware ADS-B
Sat 05:26:37 PM 42.6100 -94.3800 89° East 436 502 37,000  Level FlightAware ADS-B
Sat 05:27:09 PM 42.6110 -94.2960 89° East 434 499 37,000  Level FlightAware ADS-B
Sat 05:27:44 PM 42.6120 -94.2000 89° East 432 497 37,000  Level FlightAware ADS-B
Sat 05:28:20 PM 42.6130 -94.1020 89° East 430 495 37,000  Level FlightAware ADS-B
Sat 05:28:58 PM 42.6140 -93.9990 89° East 428 493 37,000  Level FlightAware ADS-B
Sat 05:29:34 PM 42.6140 -93.9020 90° East 426 490 37,000  Level FlightAware ADS-B
Sat 05:30:07 PM 42.6150 -93.8160 89° East 425 489 37,000  Level FlightAware ADS-B
Sat 05:30:42 PM 42.6150 -93.7230 90° East 424 488 37,000  Level FlightAware ADS-B
Sat 05:31:15 PM 42.6160 -93.6360 89° East 423 487 37,000  Level FlightAware ADS-B
Sat 05:31:54 PM 42.6160 -93.5310 90° East 424 488 37,000  Level FlightAware ADS-B
Sat 05:32:26 PM 42.6160 -93.4460 90° East 424 488 37,000  Level FlightAware ADS-B
Sat 05:33:00 PM 42.6170 -93.3580 89° East 425 489 37,000  Level FlightAware ADS-B
Sat 05:33:38 PM 42.6170 -93.2550 90° East 426 490 37,000  Level FlightAware ADS-B
Sat 05:34:14 PM 42.6170 -93.1590 90° East 426 490 37,000  Level FlightAware ADS-B
Sat 05:34:47 PM 42.6170 -93.0730 90° East 427 491 37,000  Level FlightAware ADS-B
Sat 05:35:22 PM 42.6170 -92.9760 90° East 428 493 37,000  Level FlightAware ADS-B
Sat 05:35:59 PM 42.6160 -92.8790 91° East 429 494 37,000  Level FlightAware ADS-B
Sat 05:36:30 PM 42.6160 -92.7960 90° East 429 494 37,000  Level FlightAware ADS-B
Sat 05:37:10 PM 42.6160 -92.6880 90° East 429 494 37,000  Level FlightAware ADS-B
Sat 05:37:42 PM 42.6150 -92.6010 91° East 429 494 37,000  Level FlightAware ADS-B
Sat 05:38:16 PM 42.6150 -92.5080 90° East 429 494 37,000  Level FlightAware ADS-B
Sat 05:38:52 PM 42.6140 -92.4150 91° East 429 494 37,000  Level FlightAware ADS-B
Sat 05:39:28 PM 42.6140 -92.3190 90° East 430 495 37,000  Level FlightAware ADS-B
Sat 05:40:02 PM 42.6130 -92.2260 91° East 429 494 37,000  Level FlightAware ADS-B
Sat 05:40:37 PM 42.6120 -92.1330 91° East 429 494 37,000  Level FlightAware ADS-B
Sat 05:41:12 PM 42.6110 -92.0370 91° East 428 493 37,000  Level FlightAware ADS-B
Sat 05:41:50 PM 42.6100 -91.9360 91° East 427 491 37,000  Level FlightAware ADS-B
Sat 05:42:20 PM 42.6090 -91.8560 91° East 427 491 37,000  Level FlightAware ADS-B
Sat 05:42:58 PM 42.6080 -91.7560 91° East 427 491 37,000  Level FlightAware ADS-B
Sat 05:43:33 PM 42.6070 -91.6600 91° East 428 493 37,000  Level FlightAware ADS-B
Sat 05:44:10 PM 42.6060 -91.5660 91° East 429 494 37,000  Level FlightAware ADS-B
Sat 05:44:42 PM 42.6040 -91.4780 92° East 429 494 37,000  Level FlightAware ADS-B
Sat 05:45:18 PM 42.6030 -91.3800 91° East 430 495 37,000  Level FlightAware ADS-B
Sat 05:45:55 PM 42.6010 -91.2790 92° East 431 496 37,000  Level FlightAware ADS-B
Sat 05:46:25 PM 42.6000 -91.2040 91° East 432 497 37,000  Level FlightAware ADS-B
Sat 05:47:03 PM 42.5980 -91.0940 91° East 433 498 37,000  Level FlightAware ADS-B
Sat 05:47:38 PM 42.5960 -91.0020 92° East 433 498 37,000  Level FlightAware ADS-B
Sat 05:48:14 PM 42.5940 -90.9050 92° East 434 499 37,000  Level FlightAware ADS-B
Sat 05:48:48 PM 42.5920 -90.8110 92° East 434 499 37,000  Level FlightAware ADS-B
Sat 05:49:23 PM 42.5900 -90.7140 92° East 434 499 37,000  Level FlightAware ADS-B
Sat 05:50:00 PM 42.5880 -90.6150 92° East 433 498 37,000  Level FlightAware ADS-B
Sat 05:50:34 PM 42.5860 -90.5220 92° East 433 498 37,000  Level FlightAware ADS-B
Sat 05:51:10 PM 42.5840 -90.4250 92° East 433 498 37,000  Level FlightAware ADS-B
Sat 05:51:43 PM 42.5820 -90.3370 92° East 434 499 37,000  Level FlightAware ADS-B
Sat 05:52:19 PM 42.5790 -90.2390 92° East 433 498 37,000  Level FlightAware ADS-B
Sat 05:52:54 PM 42.5770 -90.1430 92° East 432 497 37,000  Level FlightAware ADS-B
Sat 05:53:31 PM 42.5740 -90.0440 92° East 432 497 37,000  Level FlightAware ADS-B
Sat 05:54:03 PM 42.5720 -89.9590 92° East 432 497 37,000  Level FlightAware ADS-B
Sat 05:54:38 PM 42.5690 -89.8620 92° East 432 497 37,000  Level FlightAware ADS-B
Sat 05:55:15 PM 42.5660 -89.7650 92° East 431 496 37,000  Level FlightAware ADS-B
Sat 05:55:51 PM 42.5630 -89.6670 92° East 430 495 37,000  Level FlightAware ADS-B
Sat 05:56:23 PM 42.5600 -89.5800 93° East 430 495 37,000  Level FlightAware ADS-B
Sat 05:57:00 PM 42.5570 -89.4790 92° East 429 494 37,000  Level FlightAware ADS-B
Sat 05:57:33 PM 42.5540 -89.3940 93° East 428 493 37,000  Level FlightAware ADS-B
Sat 05:58:09 PM 42.5510 -89.2950 92° East 427 491 37,000  Level FlightAware ADS-B
Sat 05:58:45 PM 42.5480 -89.2020 92° East 427 491 37,000  Level FlightAware ADS-B
Sat 05:59:17 PM 42.5450 -89.1160 93° East 426 490 37,000  Level FlightAware ADS-B
Sat 05:59:53 PM 42.5420 -89.0200 92° East 425 489 37,000  Level FlightAware ADS-B
Sat 06:00:21 PM 42.5390 -88.9450 93° East 424 488 37,000  Level FlightAware ADS-B
Sat 06:00:57 PM 42.5350 -88.8490 93° East 424 488 37,000  Level FlightAware ADS-B
Sat 06:01:33 PM 42.5320 -88.7550 92° East 423 487 37,000  Level FlightAware ADS-B
Sat 06:02:09 PM 42.5280 -88.6590 93° East 423 487 37,000  Level FlightAware ADS-B
Sat 06:02:41 PM 42.5240 -88.5740 94° East 422 486 37,000  Level FlightAware ADS-B
Sat 06:03:18 PM 42.5210 -88.4800 92° East 421 484 37,000  Level FlightAware ADS-B
Sat 06:03:54 PM 42.5170 -88.3850 93° East 420 483 37,000  Level FlightAware ADS-B
Sat 06:04:26 PM 42.5130 -88.3020 94° East 419 482 37,000  Level FlightAware ADS-B
Sat 06:05:00 PM 42.5090 -88.2140 93° East 419 482 37,000  Level FlightAware ADS-B
Sat 06:05:38 PM 42.5050 -88.1150 93° East 419 482 37,000  Level FlightAware ADS-B
Sat 06:06:15 PM 42.5010 -88.0140 93° East 418 481 37,000  Level FlightAware ADS-B
Sat 06:06:46 PM 42.5000 -87.9350 91° East 418 481 37,000  Level FlightAware ADS-B
Sat 06:07:18 PM 42.5000 -87.8530 90° East 419 482 37,000  Level FlightAware ADS-B
Sat 06:07:53 PM 42.5000 -87.7570 90° East 418 481 37,000  Level FlightAware ADS-B
Sat 06:08:32 PM 42.5000 -87.6600 90° East 419 482 37,000  Level FlightAware ADS-B
Sat 06:09:07 PM 42.4990 -87.5680 91° East 420 483 37,000  Level FlightAware ADS-B
Sat 06:09:42 PM 42.4990 -87.4790 90° East 421 484 37,000  Level FlightAware ADS-B
Sat 06:10:16 PM 42.4990 -87.3870 90° East 421 484 37,000  Level FlightAware ADS-B
Sat 06:10:50 PM 42.4980 -87.2990 91° East 421 484 37,000  Level FlightAware ADS-B
Sat 06:11:29 PM 42.4970 -87.1930 91° East 422 486 37,000  Level FlightAware ADS-B
Sat 06:12:03 PM 42.4970 -87.1020 90° East 423 487 37,000  Level FlightAware ADS-B
Sat 06:12:39 PM 42.4960 -87.0080 91° East 426 490 37,000  Level FlightAware ADS-B
Sat 06:13:15 PM 42.4950 -86.9110 91° East 428 493 37,000  Level FlightAware ADS-B
Sat 06:13:47 PM 42.4940 -86.8290 91° East 430 495 37,000  Level FlightAware ADS-B
Sat 06:14:23 PM 42.4930 -86.7340 91° East 432 497 37,000  Level FlightAware ADS-B
Sat 06:14:55 PM 42.4920 -86.6460 91° East 434 499 37,000  Level FlightAware ADS-B
Sat 06:15:29 PM 42.4910 -86.5510 91° East 437 503 37,000  Level FlightAware ADS-B
Sat 06:16:03 PM 42.4900 -86.4590 91° East 439 505 37,000  Level FlightAware ADS-B
Sat 06:16:41 PM 42.4890 -86.3530 91° East 441 507 37,000  Level FlightAware ADS-B
Sat 06:17:19 PM 42.4870 -86.2440 91° East 441 507 37,000  Level FlightAware ADS-B
Sat 06:17:51 PM 42.4860 -86.1620 91° East 442 509 37,000  Level FlightAware ADS-B
Sat 06:18:27 PM 42.4840 -86.0590 91° East 443 510 37,000  Level FlightAware ADS-B
Sat 06:19:03 PM 42.4830 -85.9650 91° East 443 510 37,000  Level FlightAware ADS-B
Sat 06:19:39 PM 42.4810 -85.8610 91° East 444 511 37,000  Level FlightAware ADS-B
Sat 06:20:13 PM 42.4790 -85.7680 92° East 444 511 37,000  Level FlightAware ADS-B
Sat 06:20:49 PM 42.4770 -85.6660 91° East 445 512 37,000  Level FlightAware ADS-B
Sat 06:21:25 PM 42.4750 -85.5730 92° East 446 513 37,000  Level FlightAware ADS-B
Sat 06:21:58 PM 42.4730 -85.4770 92° East 447 514 37,000  Level FlightAware ADS-B
Sat 06:22:35 PM 42.4710 -85.3750 91° East 447 514 37,000 87 Level FlightAware ADS-B
Sat 06:23:07 PM 42.4690 -85.2850 92° East 445 512 37,100 343 Climbing FlightAware ADS-B
Sat 06:23:45 PM 42.4660 -85.1810 92° East 446 513 37,400 500 Climbing FlightAware ADS-B
Sat 06:24:19 PM 42.4640 -85.0810 92° East 449 517 37,700 514 Climbing FlightAware ADS-B
Sat 06:24:55 PM 42.4610 -84.9810 92° East 450 518 38,000 500 Climbing FlightAware ADS-B
Sat 06:25:31 PM 42.4580 -84.8810 92° East 452 520 38,300 455 Climbing FlightAware ADS-B
Sat 06:26:01 PM 42.4560 -84.7990 92° East 453 521 38,500 469 Climbing FlightAware ADS-B
Sat 06:26:35 PM 42.4530 -84.6960 92° East 457 526 38,800 417 Climbing FlightAware ADS-B
Sat 06:27:13 PM 42.4500 -84.5910 92° East 465 535 39,000 158 Climbing FlightAware ADS-B
Sat 06:27:51 PM 42.4470 -84.4810 92° East 469 540 39,000  Level FlightAware ADS-B
Sat 06:28:31 PM 42.4430 -84.3610 93° East 471 542 39,000  Level FlightAware ADS-B
Sat 06:29:07 PM 42.4400 -84.2550 92° East 473 544 39,000  Level FlightAware ADS-B
Sat 06:29:47 PM 42.4350 -84.1430 93° East 473 544 39,000  Level FlightAware ADS-B
Sat 06:30:21 PM 42.4270 -84.0360 96° East 474 545 39,000  Level FlightAware ADS-B
Sat 06:31:04 PM 42.4190 -83.9070 95° East 474 545 39,000  Level FlightAware ADS-B
Sat 06:31:40 PM 42.4120 -83.8010 95° East 475 547 39,000  Level FlightAware ADS-B
Sat 06:32:13 PM 42.4050 -83.7040 96° East 475 547 39,000  Level FlightAware ADS-B
Sat 06:32:50 PM 42.3980 -83.5930 95° East 474 545 39,000  Level FlightAware ADS-B
Sat 06:33:26 PM 42.3910 -83.4870 95° East 473 544 39,000  Level FlightAware ADS-B
Sat 06:34:02 PM 42.3840 -83.3810 95° East 474 545 39,000  Level FlightAware ADS-B
Sat 06:34:34 PM 42.3770 -83.2890 96° East 475 547 39,000  Level FlightAware ADS-B
Sat 06:35:10 PM 42.3700 -83.1800 95° East 476 548 39,000  Level FlightAware ADS-B
Sat 06:35:42 PM 42.3630 -83.0870 96° East 478 550 39,000  Level FlightAware ADS-B
Sat 06:36:19 PM 42.3560 -82.9830 95° East 480 552 39,000  Level FlightAware ADS-B
Sat 06:36:50 PM 42.3490 -82.8880 96° East 483 556 39,000  Level FlightAware ADS-B
Sat 06:37:30 PM 42.3400 -82.7680 96° East 486 559 39,000  Level FlightAware ADS-B
Sat 06:38:04 PM 42.3320 -82.6620 96° East 489 563 39,000  Level FlightAware ADS-B
Sat 06:38:39 PM 42.3240 -82.5580 96° East 492 566 39,000  Level FlightAware ADS-B
Sat 06:39:16 PM 42.3150 -82.4410 96° East 495 570 39,000  Level FlightAware ADS-B
Sat 06:39:52 PM 42.3060 -82.3310 96° East 498 573 39,000  Level FlightAware ADS-B
Sat 06:40:22 PM 42.3000 -82.2450 95° East 500 575 39,000  Level FlightAware ADS-B
Sat 06:40:59 PM 42.2900 -82.1250 96° East 504 580 39,000  Level FlightAware ADS-B
Sat 06:41:34 PM 42.2810 -82.0120 96° East 507 583 39,000  Level FlightAware ADS-B
Sat 06:42:09 PM 42.2720 -81.9060 97° East 509 586 39,000  Level FlightAware ADS-B
Sat 06:42:46 PM 42.2630 -81.7920 96° East 513 590 39,000  Level FlightAware ADS-B
Sat 06:43:31 PM 42.2530 -81.6710 96° East 516 594 39,000  Level FlightAware ADS-B
Sat 06:44:10 PM 42.2420 -81.5390 96° East 518 596 39,000  Level FlightAware ADS-B
Sat 06:44:48 PM 42.2310 -81.4160 97° East 521 600 39,000  Level FlightAware ADS-B
Sat 06:45:27 PM 42.2200 -81.2920 97° East 524 603 39,000  Level FlightAware ADS-B
Sat 06:45:55 PM 42.2130 -81.2070 96° East 525 604 39,000  Level FlightAware ADS-B
Sat 06:46:35 PM 42.2000 -81.0660 97° East 526 605 39,000  Level FlightAware ADS-B
Sat 06:47:07 PM 42.1910 -80.9670 97° East 527 606 39,000  Level FlightAware ADS-B
Sat 06:47:42 PM 42.1810 -80.8510 97° East 528 608 39,000  Level FlightAware ADS-B
Sat 06:48:21 PM 42.1680 -80.7250 98° East 528 608 39,000  Level FlightAware ADS-B
Sat 06:49:03 PM 42.1510 -80.5900 100° East 529 609 39,000  Level FlightAware ADS-B
Sat 06:49:42 PM 42.1330 -80.4470 100° East 537 618 39,000  Level FlightAware ADS-B
Sat 06:50:16 PM 42.1190 -80.3350 100° East 542 624 39,000  Level FlightAware ADS-B
Sat 06:50:51 PM 42.1040 -80.2170 100° East 548 631 39,000  Level FlightAware ADS-B
Sat 06:51:31 PM 42.0870 -80.0810 100° East 551 634 39,000  Level FlightAware ADS-B
Sat 06:52:06 PM 42.0720 -79.9630 100° East 552 635 39,000  Level FlightAware ADS-B
Sat 06:52:36 PM 42.0600 -79.8620 99° East 552 635 39,000  Level FlightAware ADS-B
Sat 06:53:11 PM 42.0440 -79.7430 100° East 553 636 39,000  Level FlightAware ADS-B
Sat 06:53:51 PM 42.0270 -79.6090 100° East 553 636 39,000  Level FlightAware ADS-B
Sat 06:54:26 PM 42.0120 -79.4940 100° East 552 635 39,000  Level FlightAware ADS-B
Sat 06:54:56 PM 41.9980 -79.3890 100° East 551 634 39,000  Level FlightAware ADS-B
Sat 06:55:36 PM 41.9810 -79.2560 100° East 549 632 39,000  Level FlightAware ADS-B
Sat 06:56:06 PM 41.9670 -79.1570 101° East 548 631 39,000  Level FlightAware ADS-B
Sat 06:56:46 PM 41.9490 -79.0220 100° East 548 631 39,000  Level FlightAware ADS-B
Sat 06:57:16 PM 41.9360 -78.9230 100° East 548 631 39,000  Level FlightAware ADS-B
Sat 06:57:51 PM 41.9200 -78.8090 101° East 548 631 39,000  Level FlightAware ADS-B
Sat 06:58:31 PM 41.9010 -78.6760 101° East 546 628 39,000  Level FlightAware ADS-B
Sat 06:59:06 PM 41.8850 -78.5550 100° East 541 623 39,000  Level FlightAware ADS-B
Sat 06:59:46 PM 41.8660 -78.4240 101° East 534 615 39,000  Level FlightAware ADS-B
Sat 07:00:21 PM 41.8510 -78.3130 100° East 532 612 39,000  Level FlightAware ADS-B
Sat 07:00:56 PM 41.8340 -78.1990 101° East 532 612 39,000  Level FlightAware ADS-B
Sat 07:01:41 PM 41.8140 -78.0590 101° East 531 611 39,000  Level FlightAware ADS-B
Sat 07:02:11 PM 41.8000 -77.9600 101° East 531 611 39,000  Level FlightAware ADS-B
Sat 07:02:46 PM 41.7840 -77.8490 101° East 530 610 39,000  Level FlightAware ADS-B
Sat 07:03:26 PM 41.7660 -77.7280 101° East 532 612 39,000  Level FlightAware ADS-B
Sat 07:04:01 PM 41.7470 -77.6020 101° East 531 611 39,000  Level FlightAware ADS-B
Sat 07:04:31 PM 41.7330 -77.5120 102° East 531 611 39,000  Level FlightAware ADS-B
Sat 07:05:11 PM 41.7130 -77.3770 101° East 532 612 39,000  Level FlightAware ADS-B
Sat 07:05:46 PM 41.6960 -77.2650 101° East 532 612 39,000  Level FlightAware ADS-B
Sat 07:06:16 PM 41.6800 -77.1680 102° East 528 608 39,000 -429 Level FlightAware ADS-B
Sat 07:06:56 PM 41.6520 -77.0510 108° East 522 601 38,500 -968 Descending FlightAware ADS-B
Sat 07:07:18 PM 41.6299 -76.9698 110° East 523 602 38,000 -1,345 Descending FlightAware ADS-B
Sat 07:07:54 PM 41.6003 -76.8615 110° East 525 604 37,200 -1,164 Descending FlightAware ADS-B
Sat 07:08:25 PM 41.5747 -76.7687 110° East 523 602 36,700 -871 Descending FlightAware ADS-B
Sat 07:08:56 PM 41.5490 -76.6748 110° East 512 589 36,300 -581 Descending FlightAware ADS-B
Sat 07:09:27 PM 41.5240 -76.5842 110° East 506 582 36,100 -295 Descending FlightAware ADS-B
Sat 07:09:57 PM 41.4994 -76.4951 110° East 513 590 36,000 -197 Descending FlightAware ADS-B
Sat 07:10:28 PM 41.4738 -76.4030 110° East 519 597 35,900 -1,429 Descending FlightAware ADS-B
Sat 07:11:00 PM 41.4465 -76.3052 110° East 530 610 34,500 -2,095 Descending FlightAware ADS-B
Sat 07:11:31 PM 41.4204 -76.2112 110° East 519 597 33,700 -1,839 Descending FlightAware ADS-B
Sat 07:12:02 PM 41.3953 -76.1211 110° East 515 593 32,600 -2,613 Descending FlightAware ADS-B
Sat 07:12:33 PM 41.3692 -76.0283 111° Southeast 522 601 31,000 -3,344 Descending FlightAware ADS-B
Sat 07:13:03 PM 41.3436 -75.9376 111° Southeast 527 606 29,200 -2,700 Descending FlightAware ADS-B
Sat 07:13:33 PM 41.3180 -75.8471 111° Southeast 512 589 28,300 -1,839 Descending FlightAware ADS-B
Sat 07:14:05 PM 41.2918 -75.7552 111° Southeast 493 567 27,300 -1,781 Descending FlightAware ADS-B
Sat 07:14:37 PM 41.2653 -75.6676 112° Southeast 477 549 26,400 -1,714 Descending FlightAware ADS-B
Sat 07:15:08 PM 41.2386 -75.5858 113° Southeast 462 532 25,500 -1,770 Descending FlightAware ADS-B
Sat 07:15:38 PM 41.2127 -75.5086 114° Southeast 450 518 24,600 -1,742 Descending FlightAware ADS-B
Sat 07:16:10 PM 41.1864 -75.4304 114° Southeast 443 510 23,700 -1,548 Descending FlightAware ADS-B
Sat 07:16:40 PM 41.1609 -75.3550 114° Southeast 443 510 23,000 -689 Descending FlightAware ADS-B
Sat 07:17:11 PM 41.1355 -75.2795 114° Southeast 437 503 23,000  Level FlightAware ADS-B
Sat 07:17:44 PM 41.1079 -75.1979 114° Southeast 438 504 23,000  Level FlightAware ADS-B
Sat 07:18:15 PM 41.0822 -75.1221 114° Southeast 443 510 23,000  Level FlightAware ADS-B
Sat 07:18:45 PM 41.0569 -75.0475 114° Southeast 440 506 23,000  Level FlightAware ADS-B
Sat 07:19:17 PM 41.0306 -74.9703 114° Southeast 452 520 23,000 -414 Level FlightAware ADS-B
Sat 07:19:43 PM 41.0078 -74.9027 114° Southeast 470 541 22,600 -1,317 Descending FlightAware ADS-B
Sat 07:19:58 PM 40.9960 -74.8621 111° Southeast 473 544 22,100 -2,000 Descending FlightAware ADS-B
Sat 07:20:28 PM 40.9769 -74.7797 107° East 462 532 21,100 -2,192 Descending FlightAware ADS-B
Sat 07:20:50 PM 40.9642 -74.7189 105° East 465 535 20,200 -2,400 Descending FlightAware ADS-B
Sat 07:20:58 PM 40.9601 -74.6988 105° East 453 521 19,900 -1,935 Descending FlightAware ADS-B
Sat 07:21:21 PM 40.9475 -74.6373 105° East 448 516 19,200 -1,548 Descending FlightAware ADS-B
Sat 07:21:29 PM 40.9433 -74.6176 106° East 448 516 19,100 -400 Descending FlightAware ADS-B
Sat 07:21:51 PM 40.9310 -74.5583 105° East 447 514 19,000 -200 Descending FlightAware ADS-B
Sat 07:21:59 PM 40.9265 -74.5365 105° East 447 514 19,000  Level FlightAware ADS-B
Sat 07:22:22 PM 40.9141 -74.4767 105° East 448 516 19,000  Level FlightAware ADS-B
Sat 07:22:29 PM 40.9100 -74.4572 106° East 449 517 19,000  Level FlightAware ADS-B
Sat 07:22:53 PM 40.8971 -74.3957 105° East 449 517 19,000  Level FlightAware ADS-B
Sat 07:23:02 PM 40.8919 -74.3712 106° East 449 517 19,000  Level FlightAware ADS-B
Sat 07:23:32 PM 40.8749 -74.2917 106° East 450 518 19,000  Level FlightAware ADS-B
Sat 07:23:51 PM 40.8639 -74.2419 106° East 450 518 19,000  Level FlightAware ADS-B
Sat 07:24:04 PM 40.8535 -74.2088 113° Southeast 448 516 19,000  Level FlightAware ADS-B
Sat 07:24:12 PM 40.8456 -74.1900 119° Southeast 447 514 19,000  Level FlightAware ADS-B
Sat 07:24:19 PM 40.8382 -74.1752 123° Southeast 446 513 19,000 -300 Level FlightAware ADS-B
Sat 07:24:32 PM 40.8207 -74.1473 130° Southeast 442 509 18,900 -857 Descending FlightAware ADS-B
Sat 07:24:40 PM 40.8091 -74.1315 134° Southeast 440 506 18,700 -1,400 Descending FlightAware ADS-B
Sat 07:25:02 PM 40.7780 -74.0906 135° Southeast 429 494 18,200 -1,667 Descending FlightAware ADS-B
Sat 07:25:34 PM 40.7344 -74.0335 135° Southeast 414 476 17,200 -2,000 Descending FlightAware ADS-B
Sat 07:25:47 PM 40.7162 -74.0097 135° Southeast 417 480 16,700 -2,129 Descending FlightAware ADS-B
Sat 07:26:05 PM 40.6924 -73.9785 135° Southeast 404 465 16,100 -1,224 Descending FlightAware ADS-B
Sat 07:26:36 PM 40.6513 -73.9252 135° Southeast 402 463 15,700 -774 Descending FlightAware ADS-B
Sat 07:27:07 PM 40.6104 -73.8729 136° Southeast 396 456 15,300 -1,143 Descending FlightAware ADS-B
Sat 07:27:39 PM 40.5702 -73.8215 136° Southeast 381 438 14,500 -1,742 Descending FlightAware ADS-B
Sat 07:28:09 PM 40.5326 -73.7732 136° Southeast 373 429 13,500 -2,100 Descending FlightAware ADS-B
Sat 07:28:39 PM 40.4952 -73.7256 136° Southeast 368 423 12,400 -1,905 Descending FlightAware ADS-B
Sat 07:29:12 PM 40.4552 -73.6752 136° Southeast 356 410 11,500 -1,404 Descending FlightAware ADS-B
Sat 07:29:26 PM 40.4393 -73.6542 135° Southeast 346 398 11,300 -667 Descending FlightAware ADS-B
Sat 07:29:30 PM 40.4352 -73.6475 129° Southeast 343 395 11,300 -667 Level FlightAware ADS-B
Sat 07:29:35 PM 40.4306 -73.6386 124° Southeast 340 391 11,200 -667 Descending FlightAware ADS-B
Sat 07:29:39 PM 40.4278 -73.6322 120° Southeast 338 389 11,200 -720 Level FlightAware ADS-B
Sat 07:30:00 PM 40.4198 -73.5925 105° East 328 377 10,900 -889 Descending FlightAware ADS-B
Sat 07:30:06 PM 40.4202 -73.5797 88° East 325 374 10,800 -1,059 Descending FlightAware ADS-B
Sat 07:30:17 PM 40.4243 -73.5586 76° East 321 369 10,600 -1,000 Descending FlightAware ADS-B
Sat 07:30:24 PM 40.4291 -73.5463 63° Northeast 317 365 10,500 -800 Descending FlightAware ADS-B
Sat 07:30:47 PM 40.4533 -73.5181 42° Northeast 306 352 10,200 -1,024 Descending FlightAware ADS-B
Sat 07:31:05 PM 40.4756 -73.5027 28° Northeast 304 350 9,800 -1,333 Descending FlightAware ADS-B
Sat 07:31:23 PM 40.4977 -73.4873 28° Northeast 304 350 9,400 -1,421 Descending FlightAware ADS-B
Sat 07:31:43 PM 40.5219 -73.4706 28° Northeast 294 338 8,900 -1,833 Descending FlightAware ADS-B
Sat 07:31:59 PM 40.5406 -73.4579 27° Northeast 289 333 8,300 -2,063 Descending FlightAware ADS-B
Sat 07:32:15 PM 40.5596 -73.4449 27° Northeast 286 329 7,800 -1,889 Descending FlightAware ADS-B
Sat 07:32:53 PM 40.6030 -73.4160 27° Northeast 269 310 6,600 -1,869 Descending FlightAware ADS-B
Sat 07:33:16 PM 40.6260 -73.4010 26° Northeast 261 300 5,900 -1,867 Descending FlightAware ADS-B
Sat 07:33:38 PM 40.6510 -73.3840 27° Northeast 249 287 5,200 -1,784 Descending FlightAware ADS-B
Sat 07:33:53 PM 40.6670 -73.3770 18° North 249 287 4,800 -1,535 Descending FlightAware ADS-B
Sat 07:34:21 PM 40.6960 -73.3920 339° North 255 293 4,100 -1,500 Descending FlightAware ADS-B
Sat 07:34:29 PM 40.7010 -73.4020 303° West 258 297 3,900 -857 Descending FlightAware ADS-B
Sat 07:34:49 PM 40.7110 -73.4320 294° West 260 299 3,700 -429 Descending FlightAware ADS-B
Sat 07:34:57 PM 40.7160 -73.4420 303° West 254 292 3,700  Level FlightAware ADS-B
Sat 07:35:17 PM 40.7310 -73.4630 313° West 236 272 3,700  Level FlightAware ADS-B
Sat 07:35:37 PM 40.7460 -73.4830 315° West 221 254 3,700 -214 Level FlightAware ADS-B
Sat 07:35:45 PM 40.7510 -73.4920 306° West 219 252 3,600 -857 Descending FlightAware ADS-B
Sat 07:36:05 PM 40.7600 -73.5150 297° West 218 251 3,300 -955 Descending FlightAware ADS-B
Sat 07:36:29 PM 40.7700 -73.5450 294° West 220 253 2,900 -818 Descending FlightAware ADS-B
Sat 07:36:49 PM 40.7790 -73.5700 295° West 223 257 2,700 -286 Descending FlightAware ADS-B
Sat 07:37:11 PM 40.7880 -73.5960 295° West 224 258 2,700  Level FlightAware ADS-B
Sat 07:37:19 PM 40.7900 -73.6080 282° West 223 257 2,700  Level FlightAware ADS-B
Sat 07:37:39 PM 40.7890 -73.6350 267° West 223 257 2,700  Level FlightAware ADS-B
Sat 07:37:47 PM 40.7870 -73.6460 257° West 222 255 2,700  Level FlightAware ADS-B
Sat 07:38:06 PM 40.7780 -73.6680 242° Southwest 222 255 2,700 -222 Level FlightAware ADS-B
Sat 07:38:14 PM 40.7720 -73.6750 221° Southwest 215 247 2,600 -1,034 Descending FlightAware ADS-B
Sat 07:38:35 PM 40.7550 -73.6900 214° Southwest 215 247 2,200 -1,024 Descending FlightAware ADS-B
Sat 07:38:55 PM 40.7380 -73.7020 208° Southwest 208 239 1,900 -1,050 Descending FlightAware ADS-B
Sat 07:39:15 PM 40.7210 -73.7140 208° Southwest 195 224 1,500 -1,091 Descending FlightAware ADS-B
Sat 07:39:39 PM 40.7030 -73.7260 207° Southwest 164 189 1,100 -955 Descending FlightAware ADS-B
Sat 07:39:59 PM 40.6910 -73.7350 210° Southwest 149 171 800 -750 Descending FlightAware ADS-B
Sat 07:40:19 PM 40.6790 -73.7430 207° Southwest 135 155 600 -769 Descending FlightAware ADS-B
Sat 07:40:38 PM 40.6680 -73.7500 206° Southwest 131 151 300 -698 Descending FlightAware ADS-B
Sat 07:41:02 PM 40.6550 -73.7600 210° Southwest 132 152 100 -500 Descending FlightAware ADS-B
Sat 07:41:23 PM 40.6450 -73.7670 208° Southwest 130 150 -286 Descending FlightAware ADS-B
Sat 07:41:43 PM 40.6350 -73.7760 214° Southwest 98 113  Level FlightAware ADS-B

Login

Don't have an account? Register now (free) for customized features, flight alerts, and more!